Time;durP1;ratioP1;P1;durP2;ratioP2;P2;SDS_P1;SDS_P2;PMS_P1;PMS_P2;Temp;Humidity;BMP_temperature;BMP_pressure;BME280_temperature;BME280_humidity;BME280_pressure;Samples;Min_cycle;Max_cycle;Signal;HPM_P1;HPM_P2
2021/12/02 00:02:16;;;;;;;10.30;2.65;;;3.70;99.90;;;;;;5078329;28;20074;-79
2021/12/02 00:04:43;;;;;;;8.27;2.15;;;3.70;99.90;;;;;;5086206;28;20110;-79
2021/12/02 00:07:11;;;;;;;10.45;2.15;;;3.80;99.90;;;;;;5056250;28;20087;-78
2021/12/02 00:09:39;;;;;;;10.13;2.53;;;3.90;99.90;;;;;;5074040;28;20041;-76
2021/12/02 00:12:07;;;;;;;10.52;2.22;;;3.90;99.90;;;;;;5057049;28;20040;-79
2021/12/02 00:14:43;;;;;;;7.22;2.28;;;4.00;99.90;;;;;;5056486;28;20040;-78
2021/12/02 00:17:26;;;;;;;8.88;2.17;;;4.10;99.90;;;;;;5055616;28;20036;-70
2021/12/02 00:23:02;;;;;;;5.68;1.85;;;4.10;99.90;;;;;;5075048;28;20441;-71
2021/12/02 00:25:28;;;;;;;13.75;4.65;;;4.10;99.90;;;;;;5034314;28;20051;-70
2021/12/02 00:27:56;;;;;;;16.52;6.93;;;4.00;99.90;;;;;;5075389;28;20044;-71
2021/12/02 00:30:22;;;;;;;43.63;17.52;;;3.90;99.90;;;;;;5073698;28;20094;-70
2021/12/02 00:32:49;;;;;;;16.60;6.55;;;3.90;99.90;;;;;;5056812;28;20036;-71
2021/12/02 00:35:16;;;;;;;13.23;3.22;;;4.00;99.90;;;;;;5075284;28;20089;-76
2021/12/02 00:37:44;;;;;;;12.40;2.45;;;3.90;99.90;;;;;;5080155;28;20131;-70
2021/12/02 00:40:10;;;;;;;5.85;2.05;;;3.90;99.90;;;;;;5075077;28;20047;-70
2021/12/02 00:42:38;;;;;;;7.43;2.00;;;3.80;99.90;;;;;;5094940;28;20055;-70
2021/12/02 00:45:04;;;;;;;7.57;2.30;;;3.80;99.90;;;;;;5095204;28;20039;-71
2021/12/02 00:47:32;;;;;;;7.18;2.70;;;3.90;99.90;;;;;;5077503;28;20035;-71
2021/12/02 00:49:58;;;;;;;8.52;2.95;;;4.00;99.90;;;;;;5094108;28;20032;-77
2021/12/02 00:52:26;;;;;;;8.77;2.92;;;3.80;99.90;;;;;;5094969;28;20047;-70
2021/12/02 00:54:55;;;;;;;5.20;2.08;;;3.90;99.90;;;;;;5095152;28;20040;-70
2021/12/02 00:57:21;;;;;;;7.90;3.17;;;3.90;99.90;;;;;;5095032;28;20039;-70
2021/12/02 00:59:49;;;;;;;8.40;2.33;;;3.90;99.90;;;;;;5094900;28;20040;-70
2021/12/02 01:02:16;;;;;;;7.00;2.55;;;4.00;99.90;;;;;;5076793;28;20376;-70
2021/12/02 01:04:42;;;;;;;7.18;2.15;;;4.00;99.90;;;;;;5094033;28;20088;-70
2021/12/02 01:07:08;;;;;;;7.10;2.67;;;4.00;99.90;;;;;;5093364;28;20491;-73
2021/12/02 01:09:35;;;;;;;7.78;2.35;;;4.00;99.90;;;;;;5094703;28;20046;-71
2021/12/02 01:12:01;;;;;;;6.88;2.47;;;3.90;99.90;;;;;;5094541;28;20573;-71
2021/12/02 01:14:28;;;;;;;7.25;2.85;;;3.80;99.90;;;;;;5094745;28;20131;-70
2021/12/02 01:16:54;;;;;;;8.68;2.35;;;3.70;99.90;;;;;;5076508;28;20534;-71
2021/12/02 01:19:20;;;;;;;8.45;3.20;;;3.70;99.90;;;;;;5093285;28;20048;-71
2021/12/02 01:21:48;;;;;;;6.40;2.97;;;3.70;99.90;;;;;;5092805;28;20502;-70
2021/12/02 01:24:16;;;;;;;7.07;2.80;;;3.70;99.90;;;;;;5092594;28;20399;-71
2021/12/02 01:26:50;;;;;;;9.35;2.78;;;3.70;99.90;;;;;;5094042;28;20044;-70
2021/12/02 01:29:18;;;;;;;5.65;2.05;;;3.70;99.90;;;;;;5094337;28;20044;-75
2021/12/02 01:31:52;;;;;;;7.07;1.98;;;3.80;99.90;;;;;;5076493;28;20036;-70
2021/12/02 01:34:23;;;;;;;10.18;2.10;;;3.90;99.90;;;;;;5073269;28;20059;-70
2021/12/02 01:36:51;;;;;;;7.60;2.10;;;4.00;99.90;;;;;;5073030;28;20093;-70
2021/12/02 01:39:17;;;;;;;7.72;2.58;;;3.90;99.90;;;;;;5071784;28;20052;-70
2021/12/02 01:41:49;;;;;;;7.10;1.83;;;3.90;99.90;;;;;;5074002;28;20036;-71
2021/12/02 01:44:19;;;;;;;8.35;3.30;;;3.90;99.90;;;;;;5073920;28;20095;-70
2021/12/02 01:46:50;;;;;;;9.65;4.55;;;3.60;99.90;;;;;;5072417;28;20037;-70
2021/12/02 01:49:18;;;;;;;12.10;4.57;;;3.50;99.90;;;;;;5073571;28;20173;-71
2021/12/02 01:51:47;;;;;;;7.53;2.20;;;3.60;99.90;;;;;;5073825;28;20039;-70
2021/12/02 01:54:22;;;;;;;7.25;2.35;;;3.70;99.90;;;;;;5078757;28;20048;-72
2021/12/02 01:56:48;;;;;;;55.63;15.98;;;3.90;99.90;;;;;;5077259;28;20032;-71
2021/12/02 01:59:20;;;;;;;10.90;4.05;;;3.80;99.90;;;;;;5092017;28;20039;-71
2021/12/02 02:01:50;;;;;;;9.18;3.83;;;3.70;99.90;;;;;;5089552;28;20042;-71
2021/12/02 02:04:16;;;;;;;10.52;4.07;;;3.70;99.90;;;;;;5073452;28;20036;-71
2021/12/02 02:06:56;;;;;;;6.55;3.20;;;3.60;99.90;;;;;;5073358;28;20044;-70
2021/12/02 02:09:24;;;;;;;10.43;3.67;;;3.60;99.90;;;;;;5072202;28;20037;-70
2021/12/02 02:11:50;;;;;;;13.90;5.07;;;3.60;99.90;;;;;;5073334;28;20526;-70
2021/12/02 02:14:17;;;;;;;34.35;10.43;;;3.60;99.90;;;;;;5073120;28;20123;-71
2021/12/02 02:16:43;;;;;;;54.88;17.77;;;3.60;99.90;;;;;;5073018;28;20052;-71
2021/12/02 02:19:12;;;;;;;130.20;41.35;;;3.60;99.90;;;;;;5054820;28;20037;-72
2021/12/02 02:21:37;;;;;;;35.55;12.30;;;3.60;99.90;;;;;;5073197;28;20045;-71
2021/12/02 02:24:04;;;;;;;30.77;10.57;;;3.60;99.90;;;;;;5073142;28;20036;-70
2021/12/02 02:26:40;;;;;;;22.52;7.80;;;3.70;99.90;;;;;;5072802;28;20048;-75
2021/12/02 02:29:08;;;;;;;41.67;13.30;;;3.70;99.90;;;;;;5072947;28;20033;-70
2021/12/02 02:31:36;;;;;;;19.73;7.38;;;3.70;99.90;;;;;;5054957;28;20032;-71
2021/12/02 02:34:02;;;;;;;20.42;7.15;;;3.50;99.90;;;;;;5054817;28;20044;-71
2021/12/02 02:36:34;;;;;;;13.38;5.57;;;3.40;99.90;;;;;;5072939;28;20043;-72
2021/12/02 02:39:02;;;;;;;11.40;4.70;;;3.30;99.90;;;;;;5073009;28;20086;-74
2021/12/02 02:41:35;;;;;;;9.98;3.67;;;3.30;99.90;;;;;;5072750;28;20055;-71
2021/12/02 02:44:01;;;;;;;7.25;2.65;;;3.40;99.90;;;;;;5058429;28;20032;-71
2021/12/02 02:46:28;;;;;;;8.20;3.40;;;3.30;99.90;;;;;;5093112;28;20151;-71
2021/12/02 02:48:56;;;;;;;8.07;3.47;;;3.30;99.90;;;;;;5093199;28;20043;-71
2021/12/02 02:51:22;;;;;;;7.78;3.50;;;3.20;99.90;;;;;;5092870;28;20097;-71
2021/12/02 02:53:51;;;;;;;8.77;3.97;;;3.20;99.90;;;;;;5093029;28;20052;-71
2021/12/02 02:56:19;;;;;;;5.53;2.65;;;3.00;99.90;;;;;;5092938;28;20036;-72
2021/12/02 03:09:19;;;;;;;5.95;2.55;;;3.00;99.90;;;;;;5093276;28;20589;-70
2021/12/02 03:11:51;;;;;;;7.30;2.80;;;3.00;99.90;;;;;;5074847;28;20458;-74
2021/12/02 03:14:27;;;;;;;13.55;3.45;;;3.00;99.90;;;;;;5092805;28;20034;-70
2021/12/02 03:16:53;;;;;;;9.80;2.97;;;3.00;99.90;;;;;;5069036;28;20113;-70
2021/12/02 03:19:28;;;;;;;9.75;2.90;;;3.00;99.90;;;;;;5074274;28;20040;-70
2021/12/02 03:21:55;;;;;;;11.27;3.05;;;3.10;99.90;;;;;;5091176;28;20503;-70
2021/12/02 03:24:22;;;;;;;6.95;2.60;;;3.20;99.90;;;;;;5085380;28;20036;-71
2021/12/02 03:26:48;;;;;;;7.68;2.72;;;3.30;99.90;;;;;;5075679;28;20067;-70
2021/12/02 03:29:14;;;;;;;9.05;2.53;;;3.30;99.90;;;;;;5078470;28;20064;-70
2021/12/02 03:31:40;;;;;;;7.20;2.67;;;3.20;99.90;;;;;;5096720;28;20506;-70
2021/12/02 03:34:07;;;;;;;5.88;2.22;;;3.20;99.90;;;;;;5096565;28;20449;-70
2021/12/02 03:36:33;;;;;;;7.10;2.65;;;3.20;99.90;;;;;;5096660;28;20583;-73
2021/12/02 03:39:00;;;;;;;4.97;2.38;;;3.20;99.90;;;;;;5096818;28;20028;-72
2021/12/02 03:41:25;;;;;;;7.30;2.47;;;3.30;99.90;;;;;;5096095;28;20043;-70
2021/12/02 03:43:52;;;;;;;7.22;2.20;;;3.40;99.90;;;;;;5077826;28;20440;-70
2021/12/02 03:46:21;;;;;;;6.88;2.20;;;3.40;99.90;;;;;;5096169;28;20569;-73
2021/12/02 03:48:48;;;;;;;8.05;2.70;;;3.40;99.90;;;;;;5096196;28;20028;-71
2021/12/02 03:51:14;;;;;;;9.68;2.38;;;3.40;99.90;;;;;;5078350;28;20040;-70
2021/12/02 03:53:40;;;;;;;5.55;2.10;;;3.40;99.90;;;;;;5096252;28;20525;-70
2021/12/02 03:56:07;;;;;;;6.35;2.47;;;3.20;99.90;;;;;;5078069;28;20502;-71
2021/12/02 03:58:38;;;;;;;9.25;3.00;;;3.10;99.90;;;;;;5095995;28;20036;-71
2021/12/02 04:01:05;;;;;;;8.75;2.88;;;3.20;99.90;;;;;;5095728;28;20052;-71
2021/12/02 04:03:32;;;;;;;9.60;2.95;;;3.40;99.90;;;;;;5095882;28;20028;-71
2021/12/02 04:05:58;;;;;;;8.38;3.42;;;3.40;99.90;;;;;;5095944;28;20040;-70
2021/12/02 04:08:30;;;;;;;12.98;2.90;;;3.50;99.90;;;;;;5095469;28;20119;-75
2021/12/02 04:11:15;;;;;;;11.82;3.65;;;3.50;99.90;;;;;;5077414;28;20044;-70
2021/12/02 04:14:20;;;;;;;7.03;2.15;;;3.60;99.90;;;;;;5095786;28;20043;-70
2021/12/02 04:16:36;;;;;;;8.93;2.15;;;3.70;99.90;;;;;;5089493;28;20040;-70
2021/12/02 04:19:09;;;;;;;8.25;2.80;;;3.70;99.90;;;;;;5064277;28;20491;-79
2021/12/02 04:21:36;;;;;;;7.65;2.20;;;3.70;99.90;;;;;;5073547;28;20083;-70
2021/12/02 04:24:03;;;;;;;9.65;2.33;;;3.60;99.90;;;;;;5074425;28;20043;-72
2021/12/02 04:26:32;;;;;;;9.95;3.38;;;3.60;99.90;;;;;;5057222;28;20106;-70
2021/12/02 04:28:58;;;;;;;6.85;2.40;;;3.70;99.90;;;;;;5075398;28;20071;-70
2021/12/02 04:31:24;;;;;;;6.45;1.98;;;3.70;99.90;;;;;;5075349;28;20498;-70
2021/12/02 04:33:49;;;;;;;7.85;2.67;;;3.80;99.90;;;;;;5075132;28;20032;-71
2021/12/02 04:36:15;;;;;;;13.20;3.42;;;3.80;99.90;;;;;;5075145;28;20040;-70
2021/12/02 04:38:41;;;;;;;6.68;2.35;;;3.80;99.90;;;;;;5080357;28;20063;-71
2021/12/02 04:41:07;;;;;;;11.43;2.70;;;3.90;99.90;;;;;;5079940;28;20056;-70
2021/12/02 04:43:33;;;;;;;10.13;2.88;;;3.90;99.90;;;;;;5074899;28;20119;-70
2021/12/02 04:45:59;;;;;;;8.10;2.50;;;3.90;99.90;;;;;;5057099;28;20047;-72
2021/12/02 04:48:25;;;;;;;8.20;1.92;;;3.90;99.90;;;;;;5093214;28;20119;-77
2021/12/02 04:50:51;;;;;;;10.32;2.53;;;3.90;99.90;;;;;;5095110;28;20085;-76
2021/12/02 04:53:17;;;;;;;9.07;2.40;;;3.80;99.90;;;;;;5095268;28;20077;-71
2021/12/02 04:55:43;;;;;;;9.70;2.30;;;3.80;99.90;;;;;;5095227;28;20043;-74
2021/12/02 04:58:08;;;;;;;10.93;2.72;;;3.90;99.90;;;;;;5076860;28;20039;-75
2021/12/02 05:00:34;;;;;;;8.90;2.30;;;3.90;99.90;;;;;;5094641;28;20059;-70
2021/12/02 05:03:00;;;;;;;10.85;2.30;;;3.90;99.90;;;;;;5094689;28;20101;-70
2021/12/02 05:05:26;;;;;;;7.35;3.22;;;3.80;99.90;;;;;;5094969;28;20043;-70
2021/12/02 05:07:57;;;;;;;16.65;6.07;;;3.80;99.90;;;;;;5076578;28;20043;-72
2021/12/02 05:10:22;;;;;;;11.18;3.33;;;3.80;99.90;;;;;;5094456;28;20050;-70
2021/12/02 05:12:49;;;;;;;10.68;2.33;;;3.70;99.90;;;;;;5094327;28;20052;-72
2021/12/02 05:15:14;;;;;;;9.80;2.47;;;3.70;99.90;;;;;;5094742;28;20085;-74
2021/12/02 05:17:40;;;;;;;8.38;2.00;;;3.70;99.90;;;;;;5094228;28;20040;-70
2021/12/02 05:20:07;;;;;;;5.03;1.50;;;3.60;99.90;;;;;;5094540;28;20050;-70
2021/12/02 05:22:33;;;;;;;3.70;1.55;;;3.60;99.90;;;;;;5094426;28;20051;-71
2021/12/02 05:24:59;;;;;;;6.18;1.40;;;3.70;99.90;;;;;;5095393;28;20035;-76
2021/12/02 05:27:25;;;;;;;3.55;1.02;;;3.70;99.90;;;;;;5096143;28;20043;-77
2021/12/02 05:29:51;;;;;;;7.47;1.83;;;3.70;99.90;;;;;;5087547;28;20043;-70
2021/12/02 05:32:17;;;;;;;4.32;1.00;;;3.70;99.90;;;;;;5077514;28;20039;-74
2021/12/02 05:34:48;;;;;;;6.38;1.73;;;3.70;99.90;;;;;;5076349;28;20134;-75
2021/12/02 05:37:14;;;;;;;6.25;1.92;;;3.70;99.90;;;;;;5103598;28;20032;-70
2021/12/02 05:39:40;;;;;;;4.40;1.40;;;3.80;99.90;;;;;;5082242;28;20047;-71
2021/12/02 05:42:06;;;;;;;3.22;1.25;;;3.60;99.90;;;;;;5096185;28;20406;-70
2021/12/02 05:44:32;;;;;;;4.85;1.40;;;3.50;99.90;;;;;;5093816;28;20428;-72
2021/12/02 05:46:58;;;;;;;3.05;1.00;;;3.70;99.90;;;;;;5092738;28;20468;-71
2021/12/02 05:49:24;;;;;;;2.40;1.08;;;3.70;99.90;;;;;;5068732;28;20040;-72
2021/12/02 05:51:51;;;;;;;4.45;1.90;;;3.60;99.90;;;;;;5073164;28;20530;-71
2021/12/02 05:54:17;;;;;;;5.00;1.20;;;3.60;99.90;;;;;;5054476;28;20043;-71
2021/12/02 05:56:42;;;;;;;2.45;0.90;;;3.50;99.90;;;;;;5054085;28;20036;-72
2021/12/02 05:59:08;;;;;;;3.42;1.05;;;3.50;99.90;;;;;;5073035;28;20044;-77
2021/12/02 06:01:34;;;;;;;3.42;2.25;;;3.50;99.90;;;;;;5073249;28;20075;-71
2021/12/02 06:04:01;;;;;;;1.70;0.63;;;3.50;99.90;;;;;;5055806;28;20037;-71
2021/12/02 06:06:27;;;;;;;3.83;0.98;;;3.50;99.90;;;;;;5072500;28;20049;-74
2021/12/02 06:08:53;;;;;;;8.63;4.28;;;3.50;99.90;;;;;;5072048;28;20048;-71
2021/12/02 06:11:19;;;;;;;15.93;9.98;;;3.60;99.90;;;;;;5073202;28;20439;-78
2021/12/02 06:13:46;;;;;;;27.73;17.35;;;3.60;99.90;;;;;;5055903;28;20063;-77
2021/12/02 06:16:13;;;;;;;18.58;13.20;;;3.60;99.90;;;;;;5064380;28;20719;-80
2021/12/02 06:18:39;;;;;;;13.07;8.65;;;3.70;99.90;;;;;;5073098;28;20082;-76
2021/12/02 06:21:05;;;;;;;4.53;1.58;;;3.70;99.90;;;;;;5074558;28;20422;-81
2021/12/02 06:23:32;;;;;;;4.15;1.25;;;3.60;99.90;;;;;;5089058;28;20036;-74
2021/12/02 06:25:57;;;;;;;6.97;1.35;;;3.60;99.90;;;;;;5077319;28;20040;-71
2021/12/02 06:28:23;;;;;;;5.93;1.77;;;3.60;99.90;;;;;;5064895;28;21640;-75
2021/12/02 06:30:49;;;;;;;7.00;2.00;;;3.70;99.90;;;;;;5083081;28;20051;-74
2021/12/02 06:33:15;;;;;;;6.35;1.52;;;3.70;99.90;;;;;;5071758;28;20036;-70
2021/12/02 06:35:41;;;;;;;7.13;1.95;;;3.70;99.90;;;;;;5073059;28;20082;-74
2021/12/02 06:38:09;;;;;;;7.03;1.73;;;3.70;99.90;;;;;;5054830;28;20542;-80
2021/12/02 06:40:37;;;;;;;12.32;1.50;;;3.70;99.90;;;;;;5054691;28;20059;-71
2021/12/02 06:43:03;;;;;;;4.82;1.45;;;3.80;99.90;;;;;;5054936;28;20071;-70
2021/12/02 06:45:29;;;;;;;7.90;1.65;;;3.70;99.90;;;;;;5072847;28;20051;-82
2021/12/02 06:47:59;;;;;;;6.18;1.80;;;3.80;99.90;;;;;;5073006;28;20498;-75
2021/12/02 06:50:26;;;;;;;7.50;1.80;;;3.80;99.90;;;;;;5072901;28;20036;-71
2021/12/02 06:52:52;;;;;;;5.78;1.95;;;3.80;99.90;;;;;;5071293;28;20036;-71
2021/12/02 06:55:19;;;;;;;5.10;1.70;;;3.80;99.90;;;;;;5071605;28;20040;-81
2021/12/02 06:57:46;;;;;;;6.75;1.65;;;3.80;99.90;;;;;;5074917;28;20503;-77
2021/12/02 07:00:15;;;;;;;6.90;1.90;;;3.80;99.90;;;;;;5091675;28;20047;-70
2021/12/02 07:02:41;;;;;;;8.82;2.58;;;3.70;99.90;;;;;;5089868;28;20117;-70
2021/12/02 07:05:09;;;;;;;5.55;2.00;;;3.80;99.90;;;;;;5067099;28;20044;-72
2021/12/02 07:07:38;;;;;;;5.00;1.80;;;3.90;99.90;;;;;;5079453;28;20043;-75
2021/12/02 07:10:06;;;;;;;14.63;7.78;;;3.90;99.90;;;;;;5096728;28;20036;-70
2021/12/02 07:12:38;;;;;;;16.08;10.40;;;3.70;99.90;;;;;;5090497;28;20046;-70
2021/12/02 07:15:15;;;;;;;15.43;8.52;;;3.70;99.90;;;;;;5071075;28;20040;-82
2021/12/02 07:17:42;;;;;;;12.63;7.88;;;3.80;99.90;;;;;;5097144;28;20048;-70
2021/12/02 07:20:08;;;;;;;13.63;7.25;;;3.80;99.90;;;;;;5077363;28;20050;-69
2021/12/02 07:22:34;;;;;;;12.90;7.30;;;4.00;99.90;;;;;;5095852;28;20044;-70
2021/12/02 07:25:00;;;;;;;11.75;5.28;;;3.80;99.90;;;;;;5077941;28;20372;-70
2021/12/02 07:27:26;;;;;;;10.50;5.00;;;3.80;99.90;;;;;;5078475;28;20040;-70
2021/12/02 07:29:52;;;;;;;10.23;3.38;;;3.80;99.90;;;;;;5096539;28;20173;-70
2021/12/02 07:32:18;;;;;;;6.95;2.75;;;3.80;99.90;;;;;;5078276;28;20044;-70
2021/12/02 07:34:45;;;;;;;8.23;2.47;;;3.70;99.90;;;;;;5096783;28;20064;-70
2021/12/02 07:37:15;;;;;;;5.18;2.38;;;3.70;99.90;;;;;;5096389;28;20051;-70
2021/12/02 07:39:41;;;;;;;4.97;2.40;;;3.70;99.90;;;;;;5096514;28;20055;-70
2021/12/02 07:42:07;;;;;;;4.63;2.10;;;3.60;99.90;;;;;;5096610;28;20419;-70
2021/12/02 07:44:34;;;;;;;5.32;2.10;;;3.70;99.90;;;;;;5096003;28;20035;-70
2021/12/02 07:47:02;;;;;;;4.47;1.90;;;3.70;99.90;;;;;;5096139;28;20537;-70
2021/12/02 07:49:28;;;;;;;3.92;2.10;;;3.70;99.90;;;;;;5096280;28;20123;-76
2021/12/02 07:51:59;;;;;;;6.65;2.33;;;3.80;99.90;;;;;;5078212;28;20043;-70
2021/12/02 07:54:25;;;;;;;6.25;2.30;;;3.90;99.90;;;;;;5096233;28;20031;-71
2021/12/02 07:56:52;;;;;;;5.07;2.10;;;3.90;99.90;;;;;;5096373;28;20032;-70
2021/12/02 07:59:19;;;;;;;9.18;2.42;;;3.90;99.90;;;;;;5096538;28;20069;-70
2021/12/02 08:01:45;;;;;;;5.85;2.63;;;3.90;99.90;;;;;;5078103;28;20078;-70
2021/12/02 08:04:11;;;;;;;8.18;3.05;;;3.90;99.90;;;;;;5078359;28;20035;-70
2021/12/02 08:06:37;;;;;;;10.13;3.50;;;3.80;99.90;;;;;;5077790;28;20423;-74
2021/12/02 08:09:05;;;;;;;7.15;2.58;;;3.80;99.90;;;;;;5096049;28;20051;-69
2021/12/02 08:11:31;;;;;;;4.47;2.28;;;3.80;99.90;;;;;;5095914;28;20036;-70
2021/12/02 08:13:57;;;;;;;6.57;1.98;;;3.80;99.90;;;;;;5095663;28;20100;-70
2021/12/02 08:16:24;;;;;;;4.72;2.63;;;3.80;99.90;;;;;;5077646;28;20445;-70
2021/12/02 08:18:50;;;;;;;6.07;2.05;;;3.90;99.90;;;;;;5095698;28;20089;-70
2021/12/02 08:21:15;;;;;;;7.95;2.55;;;3.90;99.90;;;;;;5075923;28;20056;-75
2021/12/02 08:23:41;;;;;;;6.97;2.45;;;4.00;99.90;;;;;;5085928;28;20464;-69
2021/12/02 08:26:07;;;;;;;5.70;2.10;;;4.00;99.90;;;;;;5072418;28;20068;-70
2021/12/02 08:28:33;;;;;;;10.60;2.22;;;4.10;99.90;;;;;;5074674;28;20052;-69
2021/12/02 08:30:59;;;;;;;9.38;2.55;;;4.00;99.90;;;;;;5074133;28;20515;-70
2021/12/02 08:33:25;;;;;;;7.45;2.55;;;4.10;99.90;;;;;;5075266;28;20123;-70
2021/12/02 08:35:51;;;;;;;9.40;2.75;;;4.00;99.90;;;;;;5075303;28;20049;-80
2021/12/02 08:38:19;;;;;;;6.65;2.30;;;4.00;99.90;;;;;;5057147;28;20369;-70
2021/12/02 08:40:48;;;;;;;6.03;1.90;;;3.90;99.90;;;;;;5075244;28;20139;-70
2021/12/02 08:43:14;;;;;;;4.65;2.28;;;3.90;99.90;;;;;;5075206;28;20051;-70
2021/12/02 08:45:43;;;;;;;8.98;2.38;;;4.00;99.90;;;;;;5057627;28;20106;-70
2021/12/02 08:48:12;;;;;;;7.80;1.75;;;4.00;99.90;;;;;;5056882;28;20033;-70
2021/12/02 08:50:38;;;;;;;4.28;1.45;;;3.90;99.90;;;;;;5075240;28;20041;-70
2021/12/02 08:53:05;;;;;;;7.07;2.20;;;3.90;99.90;;;;;;5057106;28;20046;-70
2021/12/02 08:55:32;;;;;;;6.00;1.80;;;4.00;99.90;;;;;;5077897;28;20070;-70
2021/12/02 08:57:59;;;;;;;6.95;1.83;;;3.90;99.90;;;;;;5095195;28;20028;-70
2021/12/02 09:00:33;;;;;;;6.32;1.70;;;3.90;99.90;;;;;;5076975;28;20503;-70
2021/12/02 09:03:00;;;;;;;5.00;1.88;;;3.90;99.90;;;;;;5077193;28;20086;-70
2021/12/02 09:05:26;;;;;;;4.00;1.42;;;3.90;99.90;;;;;;5077204;28;20131;-69
2021/12/02 09:07:51;;;;;;;4.82;1.50;;;4.00;99.90;;;;;;5094787;28;20114;-69
2021/12/02 09:10:21;;;;;;;4.63;1.60;;;4.10;99.90;;;;;;5094768;28;20068;-70
2021/12/02 09:12:47;;;;;;;3.33;1.55;;;4.10;99.90;;;;;;5094431;28;20131;-70
2021/12/02 09:15:14;;;;;;;5.22;1.88;;;4.20;99.90;;;;;;5094785;28;20093;-69
2021/12/02 09:17:40;;;;;;;3.47;1.40;;;4.20;99.90;;;;;;5094878;28;20040;-70
2021/12/02 09:20:08;;;;;;;4.10;1.23;;;4.40;99.90;;;;;;5094698;28;20040;-81
2021/12/02 09:22:35;;;;;;;3.75;1.40;;;4.30;99.90;;;;;;5094623;28;20499;-71
2021/12/02 09:25:00;;;;;;;6.22;1.50;;;4.40;99.90;;;;;;5075745;28;20491;-70
2021/12/02 09:27:26;;;;;;;8.13;2.17;;;4.40;99.90;;;;;;5094524;28;20032;-70
2021/12/02 09:29:53;;;;;;;4.03;1.58;;;4.40;99.90;;;;;;5076593;28;20107;-70
2021/12/02 09:32:18;;;;;;;4.10;1.30;;;4.40;99.90;;;;;;5093858;28;20066;-80
2021/12/02 09:34:44;;;;;;;3.60;1.23;;;4.40;99.90;;;;;;5076268;28;20063;-70
2021/12/02 09:37:10;;;;;;;8.38;1.77;;;4.50;99.90;;;;;;5094312;28;20098;-70
2021/12/02 09:39:36;;;;;;;3.50;1.40;;;4.60;99.90;;;;;;5094201;28;20067;-71
2021/12/02 09:42:05;;;;;;;5.28;1.45;;;4.70;99.90;;;;;;5076229;28;20093;-76
2021/12/02 09:44:32;;;;;;;6.53;1.50;;;4.60;99.90;;;;;;5094209;28;20110;-70
2021/12/02 09:46:57;;;;;;;6.47;1.95;;;4.70;99.90;;;;;;5076313;28;20093;-70
2021/12/02 09:49:24;;;;;;;4.75;1.60;;;4.70;99.90;;;;;;5094208;28;20040;-70
2021/12/02 09:54:19;;;;;;;6.53;1.73;;;4.70;99.90;;;;;;5093837;28;20033;-70
2021/12/02 09:56:51;;;;;;;7.30;1.63;;;4.60;99.90;;;;;;5076163;28;20036;-70
2021/12/02 10:02:00;;;;;;;7.35;1.70;;;4.60;99.90;;;;;;5093974;28;20086;-70
2021/12/02 10:04:28;;;;;;;11.35;1.77;;;4.60;99.90;;;;;;5075567;28;20047;-70
2021/12/02 10:07:10;;;;;;;10.25;1.98;;;4.60;99.90;;;;;;5093830;28;20058;-70
2021/12/02 10:09:40;;;;;;;7.72;1.85;;;4.60;99.90;;;;;;5093714;28;20585;-70
2021/12/02 10:12:18;;;;;;;9.00;2.13;;;4.70;99.90;;;;;;5075592;28;20051;-70
2021/12/02 10:14:57;;;;;;;17.58;2.33;;;4.70;99.90;;;;;;5093604;28;20498;-69
2021/12/02 10:17:36;;;;;;;5.57;2.15;;;5.10;99.90;;;;;;5093546;28;20056;-71
2021/12/02 10:20:35;;;;;;;4.97;1.95;;;5.30;99.90;;;;;;5093513;28;20048;-70
2021/12/02 10:23:17;;;;;;;5.70;2.28;;;5.10;99.90;;;;;;5093714;28;20415;-70
2021/12/02 10:25:50;;;;;;;8.45;2.00;;;4.90;99.90;;;;;;5093528;28;20510;-69
2021/12/02 10:28:19;;;;;;;6.28;2.35;;;5.00;99.90;;;;;;5075221;28;20101;-79
2021/12/02 10:30:51;;;;;;;4.50;1.70;;;5.10;99.90;;;;;;5093485;28;20074;-84
2021/12/02 10:33:32;;;;;;;4.93;1.92;;;5.30;99.90;;;;;;5093425;28;20531;-69
2021/12/02 10:35:59;;;;;;;4.43;1.70;;;5.20;99.90;;;;;;5093296;28;20115;-70
2021/12/02 10:38:42;;;;;;;5.88;1.40;;;4.80;99.90;;;;;;5093058;28;20082;-70
2021/12/02 10:41:17;;;;;;;3.42;1.30;;;4.40;99.90;;;;;;5093142;28;20047;-70
2021/12/02 10:44:11;;;;;;;2.50;1.10;;;4.30;99.90;;;;;;5093333;28;20036;-70
2021/12/02 10:46:50;;;;;;;2.22;1.00;;;4.30;99.90;;;;;;5093225;28;20073;-74
2021/12/02 10:49:16;;;;;;;2.67;0.65;;;4.20;99.90;;;;;;5092679;28;20106;-70
2021/12/02 10:51:51;;;;;;;5.18;0.85;;;4.10;99.90;;;;;;5075024;28;20040;-70
2021/12/02 10:54:21;;;;;;;3.65;0.93;;;4.30;99.90;;;;;;5075163;28;20036;-70
2021/12/02 10:56:50;;;;;;;1.92;0.70;;;4.20;99.90;;;;;;5093079;28;20047;-70
2021/12/02 10:59:55;;;;;;;3.42;0.68;;;4.10;99.90;;;;;;5092880;28;20040;-70
2021/12/02 11:02:34;;;;;;;1.95;0.82;;;4.10;99.90;;;;;;5075279;28;20615;-70
2021/12/02 11:05:18;;;;;;;1.58;0.80;;;4.20;99.90;;;;;;5093101;28;20487;-70
2021/12/02 11:07:52;;;;;;;1.48;0.50;;;4.10;99.90;;;;;;5092920;28;20024;-83
2021/12/02 11:10:17;;;;;;;2.33;0.40;;;4.20;99.90;;;;;;5093162;28;20044;-70
2021/12/02 11:12:45;;;;;;;0.90;0.52;;;4.10;99.90;;;;;;5092901;28;20411;-70
2021/12/02 11:15:27;;;;;;;0.40;0.40;;;4.20;99.90;;;;;;5092978;28;20040;-70
2021/12/02 11:17:58;;;;;;;1.08;0.55;;;4.20;99.90;;;;;;5074825;28;20043;-70
2021/12/02 11:20:39;;;;;;;1.00;0.50;;;4.20;99.90;;;;;;5092369;28;20078;-70
2021/12/02 11:23:11;;;;;;;;;;;4.20;99.90;;;;;;5074298;28;20035;-71
2021/12/02 11:25:58;;;;;;;1.42;0.80;;;4.20;99.90;;;;;;5074787;28;19914;-70
2021/12/02 11:28:29;;;;;;;1.77;0.95;;;3.90;99.90;;;;;;5092576;28;20028;-70
2021/12/02 11:30:57;;;;;;;1.45;0.90;;;4.00;99.90;;;;;;5092828;28;20126;-70
2021/12/02 11:33:30;;;;;;;1.80;0.70;;;4.20;99.90;;;;;;5092923;28;20410;-70
2021/12/02 11:35:56;;;;;;;2.70;0.63;;;4.30;99.90;;;;;;5075013;28;20036;-70
2021/12/02 11:38:26;;;;;;;2.38;0.50;;;4.00;99.90;;;;;;5092891;28;20093;-70
2021/12/02 11:41:02;;;;;;;1.30;0.70;;;4.10;99.90;;;;;;5092710;28;20051;-69
2021/12/02 11:43:30;;;;;;;1.13;0.50;;;4.00;99.90;;;;;;5074699;28;20032;-70
2021/12/02 11:45:58;;;;;;;0.90;0.57;;;4.00;99.90;;;;;;5074557;28;20407;-70
2021/12/02 11:48:29;;;;;;;1.42;0.50;;;3.90;99.90;;;;;;5094843;28;20036;-70
2021/12/02 11:50:59;;;;;;;0.77;0.50;;;3.90;99.90;;;;;;5096451;28;20122;-70
2021/12/02 11:53:25;;;;;;;0.85;0.50;;;3.90;99.90;;;;;;5096303;28;20032;-70
2021/12/02 11:56:12;;;;;;;0.60;0.50;;;3.90;99.90;;;;;;5096360;28;20128;-70
2021/12/02 11:58:38;;;;;;;0.40;0.40;;;3.90;99.90;;;;;;5077924;28;20406;-70
2021/12/02 12:01:06;;;;;;;2.42;0.50;;;3.80;99.90;;;;;;5096209;28;20062;-71
2021/12/02 12:03:45;;;;;;;1.23;0.30;;;3.70;99.90;;;;;;5078078;28;20080;-75
2021/12/02 12:06:22;;;;;;;2.63;0.30;;;3.70;99.90;;;;;;5096275;28;20449;-70
2021/12/02 12:08:53;;;;;;;0.38;0.28;;;3.60;99.90;;;;;;5078079;28;20395;-81
2021/12/02 12:11:24;;;;;;;;;;;3.60;99.90;;;;;;5096673;28;20040;-70
2021/12/02 12:14:08;;;;;;;0.60;0.20;;;3.60;99.90;;;;;;5096023;28;19919;-70
2021/12/02 12:16:46;;;;;;;1.00;0.20;;;3.50;99.90;;;;;;5095951;28;20036;-75
2021/12/02 12:19:30;;;;;;;0.38;0.20;;;3.40;99.90;;;;;;5096119;28;20032;-69
2021/12/02 12:22:08;;;;;;;0.22;0.22;;;3.40;99.90;;;;;;5096039;28;20052;-69
2021/12/02 12:24:51;;;;;;;0.80;0.20;;;3.40;99.90;;;;;;5095624;28;20521;-69
2021/12/02 12:27:23;;;;;;;1.77;0.30;;;3.30;99.90;;;;;;5092825;28;20044;-79
2021/12/02 12:30:10;;;;;;;0.60;0.30;;;;;;;;;;5075500;28;20040;-70
2021/12/02 12:35:17;;;;;;;0.55;0.20;;;3.40;99.90;;;;;;5075193;28;20400;-79
2021/12/02 12:40:11;;;;;;;0.70;0.50;;;3.20;99.90;;;;;;5075626;28;20054;-70
2021/12/02 12:42:57;;;;;;;1.27;0.60;;;3.10;99.90;;;;;;5074421;28;20059;-70
2021/12/02 12:45:43;;;;;;;1.27;0.57;;;3.10;99.90;;;;;;5034046;28;20051;-70
2021/12/02 12:48:27;;;;;;;0.63;0.30;;;3.20;99.90;;;;;;5091751;28;20032;-70
2021/12/02 12:51:07;;;;;;;0.28;0.20;;;3.20;99.90;;;;;;5095569;28;20099;-70
2021/12/02 12:53:36;;;;;;;2.03;0.30;;;3.20;99.90;;;;;;5095303;28;20075;-74
2021/12/02 12:56:05;;;;;;;1.23;0.47;;;3.20;99.90;;;;;;5093929;28;20024;-73
2021/12/02 12:58:37;;;;;;;1.10;0.40;;;3.10;99.90;;;;;;5093326;28;20055;-70
2021/12/02 13:01:19;;;;;;;4.03;0.68;;;3.10;99.90;;;;;;5094643;28;20059;-70
2021/12/02 13:04:09;;;;;;;0.88;0.40;;;3.10;99.90;;;;;;5095007;28;20109;-70
2021/12/02 13:07:03;;;;;;;1.52;0.40;;;2.90;99.90;;;;;;5093550;28;20047;-69
2021/12/02 13:09:53;;;;;;;1.85;0.55;;;2.90;99.90;;;;;;5095057;28;20085;-69
2021/12/02 13:12:25;;;;;;;2.72;0.65;;;2.90;99.90;;;;;;5094894;28;20036;-69
2021/12/02 13:14:52;;;;;;;2.65;0.88;;;2.80;99.90;;;;;;5093552;28;20036;-69
2021/12/02 13:17:44;;;;;;;1.63;0.90;;;2.70;99.90;;;;;;5093627;28;20406;-68
2021/12/02 13:20:23;;;;;;;2.15;0.90;;;2.70;99.90;;;;;;5094727;28;20048;-70
2021/12/02 13:23:16;;;;;;;5.60;1.25;;;2.70;99.90;;;;;;5076385;28;20046;-80
2021/12/02 13:25:47;;;;;;;2.22;0.70;;;2.70;99.90;;;;;;5094533;28;20553;-69
2021/12/02 13:28:19;;;;;;;3.30;0.70;;;2.70;99.90;;;;;;5076270;28;20040;-69
2021/12/02 13:30:49;;;;;;;1.42;0.50;;;2.70;99.90;;;;;;5094430;28;20042;-71
2021/12/02 13:33:16;;;;;;;1.65;0.80;;;2.40;99.90;;;;;;5094525;28;20402;-69